sensor_id;sensor_type;location;lat;lon;timestamp;temperature;humidity
33328;DHT22;19692;52.998;9.116;2023-04-24T00:00:09;11.40;99.90
33328;DHT22;19692;52.998;9.116;2023-04-24T00:02:36;11.40;99.90
33328;DHT22;19692;52.998;9.116;2023-04-24T00:05:06;11.50;99.90
33328;DHT22;19692;52.998;9.116;2023-04-24T00:07:33;11.50;99.90
33328;DHT22;19692;52.998;9.116;2023-04-24T00:10:07;11.50;99.90
33328;DHT22;19692;52.998;9.116;2023-04-24T00:12:34;11.50;99.90
33328;DHT22;19692;52.998;9.116;2023-04-24T00:15:00;11.50;99.90
33328;DHT22;19692;52.998;9.116;2023-04-24T00:17:26;11.60;99.90
33328;DHT22;19692;52.998;9.116;2023-04-24T00:19:52;11.60;99.90
33328;DHT22;19692;52.998;9.116;2023-04-24T00:22:24;11.60;99.90
33328;DHT22;19692;52.998;9.116;2023-04-24T00:24:51;11.50;99.90
33328;DHT22;19692;52.998;9.116;2023-04-24T00:27:16;11.50;99.90
33328;DHT22;19692;52.998;9.116;2023-04-24T00:29:42;11.40;99.90
33328;DHT22;19692;52.998;9.116;2023-04-24T00:32:08;11.50;99.90
33328;DHT22;19692;52.998;9.116;2023-04-24T00:34:34;11.50;99.90
33328;DHT22;19692;52.998;9.116;2023-04-24T00:36:59;11.50;99.90
33328;DHT22;19692;52.998;9.116;2023-04-24T00:39:25;11.50;99.90
33328;DHT22;19692;52.998;9.116;2023-04-24T00:41:51;11.50;99.90
33328;DHT22;19692;52.998;9.116;2023-04-24T00:44:17;11.40;99.90
33328;DHT22;19692;52.998;9.116;2023-04-24T00:46:43;11.40;99.90
33328;DHT22;19692;52.998;9.116;2023-04-24T00:49:09;11.30;99.90
33328;DHT22;19692;52.998;9.116;2023-04-24T00:51:35;11.20;99.90
33328;DHT22;19692;52.998;9.116;2023-04-24T00:54:02;11.20;99.90
33328;DHT22;19692;52.998;9.116;2023-04-24T00:56:28;11.30;99.90
33328;DHT22;19692;52.998;9.116;2023-04-24T00:58:54;11.40;99.90
33328;DHT22;19692;52.998;9.116;2023-04-24T01:01:21;11.40;99.90
33328;DHT22;19692;52.998;9.116;2023-04-24T01:03:49;11.50;99.90
33328;DHT22;19692;52.998;9.116;2023-04-24T01:06:16;11.40;99.90
33328;DHT22;19692;52.998;9.116;2023-04-24T01:08:45;11.40;99.90
33328;DHT22;19692;52.998;9.116;2023-04-24T01:11:12;11.40;99.90
33328;DHT22;19692;52.998;9.116;2023-04-24T01:13:38;11.30;99.90
33328;DHT22;19692;52.998;9.116;2023-04-24T01:16:03;11.30;99.90
33328;DHT22;19692;52.998;9.116;2023-04-24T01:18:29;11.20;99.90
33328;DHT22;19692;52.998;9.116;2023-04-24T01:20:59;11.20;99.90
33328;DHT22;19692;52.998;9.116;2023-04-24T01:23:28;11.20;99.90
33328;DHT22;19692;52.998;9.116;2023-04-24T01:25:54;11.20;99.90
33328;DHT22;19692;52.998;9.116;2023-04-24T01:28:20;11.10;99.90
33328;DHT22;19692;52.998;9.116;2023-04-24T01:30:46;11.10;99.90
33328;DHT22;19692;52.998;9.116;2023-04-24T01:33:12;11.00;99.90
33328;DHT22;19692;52.998;9.116;2023-04-24T01:35:38;11.00;99.90
33328;DHT22;19692;52.998;9.116;2023-04-24T01:38:04;11.00;99.90
33328;DHT22;19692;52.998;9.116;2023-04-24T01:40:31;10.90;99.90
33328;DHT22;19692;52.998;9.116;2023-04-24T01:42:58;10.90;99.90
33328;DHT22;19692;52.998;9.116;2023-04-24T01:45:24;10.90;99.90
33328;DHT22;19692;52.998;9.116;2023-04-24T01:47:50;10.90;99.90
33328;DHT22;19692;52.998;9.116;2023-04-24T01:50:16;10.90;99.90
33328;DHT22;19692;52.998;9.116;2023-04-24T01:52:42;10.80;99.90
33328;DHT22;19692;52.998;9.116;2023-04-24T01:55:08;10.90;99.90
33328;DHT22;19692;52.998;9.116;2023-04-24T01:57:35;10.90;99.90
33328;DHT22;19692;52.998;9.116;2023-04-24T02:00:02;11.00;99.90
33328;DHT22;19692;52.998;9.116;2023-04-24T02:02:30;11.00;99.90
33328;DHT22;19692;52.998;9.116;2023-04-24T02:04:56;11.00;99.90
33328;DHT22;19692;52.998;9.116;2023-04-24T02:07:22;11.10;99.90
33328;DHT22;19692;52.998;9.116;2023-04-24T02:09:48;11.10;99.90
33328;DHT22;19692;52.998;9.116;2023-04-24T02:12:17;11.00;99.90
33328;DHT22;19692;52.998;9.116;2023-04-24T02:14:43;10.90;99.90
33328;DHT22;19692;52.998;9.116;2023-04-24T02:17:10;10.90;99.90
33328;DHT22;19692;52.998;9.116;2023-04-24T02:19:38;10.90;99.90
33328;DHT22;19692;52.998;9.116;2023-04-24T02:22:04;10.90;99.90
33328;DHT22;19692;52.998;9.116;2023-04-24T02:24:30;10.90;99.90
33328;DHT22;19692;52.998;9.116;2023-04-24T02:26:56;11.00;99.90
33328;DHT22;19692;52.998;9.116;2023-04-24T02:29:23;11.00;99.90
33328;DHT22;19692;52.998;9.116;2023-04-24T02:31:49;11.10;99.90
33328;DHT22;19692;52.998;9.116;2023-04-24T02:34:15;11.00;99.90
33328;DHT22;19692;52.998;9.116;2023-04-24T02:36:41;11.00;99.90
33328;DHT22;19692;52.998;9.116;2023-04-24T02:39:07;11.00;99.90
33328;DHT22;19692;52.998;9.116;2023-04-24T02:41:33;11.00;99.90
33328;DHT22;19692;52.998;9.116;2023-04-24T02:43:59;11.10;99.90
33328;DHT22;19692;52.998;9.116;2023-04-24T02:46:25;11.10;99.90
33328;DHT22;19692;52.998;9.116;2023-04-24T02:48:51;11.10;99.90
33328;DHT22;19692;52.998;9.116;2023-04-24T02:51:17;11.10;99.90
33328;DHT22;19692;52.998;9.116;2023-04-24T02:53:43;11.20;99.90
33328;DHT22;19692;52.998;9.116;2023-04-24T02:56:08;11.10;99.90
33328;DHT22;19692;52.998;9.116;2023-04-24T02:58:37;11.10;99.90
33328;DHT22;19692;52.998;9.116;2023-04-24T03:01:03;11.10;99.90
33328;DHT22;19692;52.998;9.116;2023-04-24T03:03:29;11.10;99.90
33328;DHT22;19692;52.998;9.116;2023-04-24T03:05:55;11.00;99.90
33328;DHT22;19692;52.998;9.116;2023-04-24T03:08:22;11.00;99.90
33328;DHT22;19692;52.998;9.116;2023-04-24T03:10:48;11.00;99.90
33328;DHT22;19692;52.998;9.116;2023-04-24T03:13:16;11.00;99.90
33328;DHT22;19692;52.998;9.116;2023-04-24T03:15:42;11.00;99.90
33328;DHT22;19692;52.998;9.116;2023-04-24T03:18:07;11.00;99.90
33328;DHT22;19692;52.998;9.116;2023-04-24T03:20:33;11.00;99.90
33328;DHT22;19692;52.998;9.116;2023-04-24T03:22:59;10.90;99.90
33328;DHT22;19692;52.998;9.116;2023-04-24T03:25:25;11.00;99.90
33328;DHT22;19692;52.998;9.116;2023-04-24T03:27:57;10.90;99.90
33328;DHT22;19692;52.998;9.116;2023-04-24T03:30:23;11.00;99.90
33328;DHT22;19692;52.998;9.116;2023-04-24T03:32:48;11.00;99.90
33328;DHT22;19692;52.998;9.116;2023-04-24T03:35:14;10.90;99.90
33328;DHT22;19692;52.998;9.116;2023-04-24T03:37:40;10.90;99.90
33328;DHT22;19692;52.998;9.116;2023-04-24T03:40:06;10.90;99.90
33328;DHT22;19692;52.998;9.116;2023-04-24T03:42:33;10.90;99.90
33328;DHT22;19692;52.998;9.116;2023-04-24T03:44:59;10.90;99.90
33328;DHT22;19692;52.998;9.116;2023-04-24T03:47:25;10.90;99.90
33328;DHT22;19692;52.998;9.116;2023-04-24T03:49:50;10.90;99.90
33328;DHT22;19692;52.998;9.116;2023-04-24T03:52:17;10.80;99.90
33328;DHT22;19692;52.998;9.116;2023-04-24T03:54:42;10.90;99.90
33328;DHT22;19692;52.998;9.116;2023-04-24T03:57:08;10.80;99.90
33328;DHT22;19692;52.998;9.116;2023-04-24T03:59:34;10.80;99.90
33328;DHT22;19692;52.998;9.116;2023-04-24T04:01:59;10.80;99.90
33328;DHT22;19692;52.998;9.116;2023-04-24T04:04:25;10.90;99.90
33328;DHT22;19692;52.998;9.116;2023-04-24T04:06:51;10.80;99.90
33328;DHT22;19692;52.998;9.116;2023-04-24T04:09:17;10.80;99.90
33328;DHT22;19692;52.998;9.116;2023-04-24T04:11:43;10.80;99.90
33328;DHT22;19692;52.998;9.116;2023-04-24T04:14:09;10.90;99.90
33328;DHT22;19692;52.998;9.116;2023-04-24T04:16:34;10.90;99.90
33328;DHT22;19692;52.998;9.116;2023-04-24T04:19:02;10.80;99.90
33328;DHT22;19692;52.998;9.116;2023-04-24T04:21:28;10.80;99.90
33328;DHT22;19692;52.998;9.116;2023-04-24T04:23:54;10.80;99.90
33328;DHT22;19692;52.998;9.116;2023-04-24T04:26:20;10.80;99.90
33328;DHT22;19692;52.998;9.116;2023-04-24T04:28:46;10.70;99.90
33328;DHT22;19692;52.998;9.116;2023-04-24T04:31:14;10.70;99.90
33328;DHT22;19692;52.998;9.116;2023-04-24T04:33:40;10.60;99.90
33328;DHT22;19692;52.998;9.116;2023-04-24T04:36:06;10.50;99.90
33328;DHT22;19692;52.998;9.116;2023-04-24T04:38:31;10.50;99.90
33328;DHT22;19692;52.998;9.116;2023-04-24T04:40:58;10.40;99.90
33328;DHT22;19692;52.998;9.116;2023-04-24T04:43:24;10.40;99.90
33328;DHT22;19692;52.998;9.116;2023-04-24T04:45:50;10.30;99.90
33328;DHT22;19692;52.998;9.116;2023-04-24T04:48:17;10.30;99.90
33328;DHT22;19692;52.998;9.116;2023-04-24T04:50:44;10.30;99.90
33328;DHT22;19692;52.998;9.116;2023-04-24T04:53:11;10.30;99.90
33328;DHT22;19692;52.998;9.116;2023-04-24T04:55:37;10.30;99.90
33328;DHT22;19692;52.998;9.116;2023-04-24T04:58:03;10.30;99.90
33328;DHT22;19692;52.998;9.116;2023-04-24T05:00:29;10.30;99.90
33328;DHT22;19692;52.998;9.116;2023-04-24T05:02:59;10.30;99.90
33328;DHT22;19692;52.998;9.116;2023-04-24T05:05:25;10.30;99.90
33328;DHT22;19692;52.998;9.116;2023-04-24T05:07:51;10.30;99.90
33328;DHT22;19692;52.998;9.116;2023-04-24T05:10:17;10.30;99.90
33328;DHT22;19692;52.998;9.116;2023-04-24T05:12:42;10.30;99.90
33328;DHT22;19692;52.998;9.116;2023-04-24T05:15:08;10.30;99.90
33328;DHT22;19692;52.998;9.116;2023-04-24T05:17:35;10.40;99.90
33328;DHT22;19692;52.998;9.116;2023-04-24T05:20:02;10.50;99.90
33328;DHT22;19692;52.998;9.116;2023-04-24T05:22:31;10.50;99.90
33328;DHT22;19692;52.998;9.116;2023-04-24T05:24:57;10.50;99.90
33328;DHT22;19692;52.998;9.116;2023-04-24T05:27:22;10.50;99.90
33328;DHT22;19692;52.998;9.116;2023-04-24T05:29:48;10.60;99.90
33328;DHT22;19692;52.998;9.116;2023-04-24T05:32:14;10.60;99.90
33328;DHT22;19692;52.998;9.116;2023-04-24T05:34:40;10.60;99.90
33328;DHT22;19692;52.998;9.116;2023-04-24T05:37:06;10.70;99.90
33328;DHT22;19692;52.998;9.116;2023-04-24T05:39:34;10.70;99.90
33328;DHT22;19692;52.998;9.116;2023-04-24T05:42:01;10.80;99.90
33328;DHT22;19692;52.998;9.116;2023-04-24T05:44:27;10.80;99.90
33328;DHT22;19692;52.998;9.116;2023-04-24T05:46:53;10.80;99.90
33328;DHT22;19692;52.998;9.116;2023-04-24T05:49:20;10.80;99.90
33328;DHT22;19692;52.998;9.116;2023-04-24T05:51:46;10.70;99.90
33328;DHT22;19692;52.998;9.116;2023-04-24T05:54:11;10.80;99.90
33328;DHT22;19692;52.998;9.116;2023-04-24T05:56:38;10.90;99.90
33328;DHT22;19692;52.998;9.116;2023-04-24T05:59:04;10.90;99.90
33328;DHT22;19692;52.998;9.116;2023-04-24T06:01:30;10.80;99.90
33328;DHT22;19692;52.998;9.116;2023-04-24T06:03:56;10.80;99.90
33328;DHT22;19692;52.998;9.116;2023-04-24T06:06:23;10.80;99.90
33328;DHT22;19692;52.998;9.116;2023-04-24T06:08:49;10.80;99.90
33328;DHT22;19692;52.998;9.116;2023-04-24T06:11:15;10.90;99.90
33328;DHT22;19692;52.998;9.116;2023-04-24T06:13:41;10.90;99.90
33328;DHT22;19692;52.998;9.116;2023-04-24T06:16:07;11.00;99.90
33328;DHT22;19692;52.998;9.116;2023-04-24T06:18:33;11.00;99.90
33328;DHT22;19692;52.998;9.116;2023-04-24T06:20:59;11.10;99.90
33328;DHT22;19692;52.998;9.116;2023-04-24T06:23:24;11.10;99.90
33328;DHT22;19692;52.998;9.116;2023-04-24T06:25:51;11.10;99.90
33328;DHT22;19692;52.998;9.116;2023-04-24T06:28:16;11.20;99.90
33328;DHT22;19692;52.998;9.116;2023-04-24T06:30:42;11.20;99.90
33328;DHT22;19692;52.998;9.116;2023-04-24T06:33:08;11.40;99.90
33328;DHT22;19692;52.998;9.116;2023-04-24T06:35:34;11.50;99.90
33328;DHT22;19692;52.998;9.116;2023-04-24T06:38:01;11.60;99.90
33328;DHT22;19692;52.998;9.116;2023-04-24T06:40:26;11.50;99.90
33328;DHT22;19692;52.998;9.116;2023-04-24T06:42:52;11.50;99.90
33328;DHT22;19692;52.998;9.116;2023-04-24T06:45:18;11.50;99.90
33328;DHT22;19692;52.998;9.116;2023-04-24T06:47:44;11.30;99.90
33328;DHT22;19692;52.998;9.116;2023-04-24T06:50:10;11.20;99.90
33328;DHT22;19692;52.998;9.116;2023-04-24T06:52:36;11.20;99.90
33328;DHT22;19692;52.998;9.116;2023-04-24T06:55:03;11.20;99.90
33328;DHT22;19692;52.998;9.116;2023-04-24T06:57:29;11.20;99.90
33328;DHT22;19692;52.998;9.116;2023-04-24T06:59:56;11.20;99.90
33328;DHT22;19692;52.998;9.116;2023-04-24T07:02:21;11.20;99.90
33328;DHT22;19692;52.998;9.116;2023-04-24T07:04:47;11.20;99.90
33328;DHT22;19692;52.998;9.116;2023-04-24T07:07:13;11.20;99.90
33328;DHT22;19692;52.998;9.116;2023-04-24T07:09:40;11.10;99.90
33328;DHT22;19692;52.998;9.116;2023-04-24T07:12:08;11.10;99.90
33328;DHT22;19692;52.998;9.116;2023-04-24T07:14:36;11.20;99.90
33328;DHT22;19692;52.998;9.116;2023-04-24T07:17:06;11.20;99.90
33328;DHT22;19692;52.998;9.116;2023-04-24T07:19:33;11.40;99.90
33328;DHT22;19692;52.998;9.116;2023-04-24T07:22:00;11.40;99.90
33328;DHT22;19692;52.998;9.116;2023-04-24T07:24:26;11.40;99.90
33328;DHT22;19692;52.998;9.116;2023-04-24T07:26:53;11.60;99.90
33328;DHT22;19692;52.998;9.116;2023-04-24T07:29:19;11.80;99.90
33328;DHT22;19692;52.998;9.116;2023-04-24T07:31:49;11.80;99.90
33328;DHT22;19692;52.998;9.116;2023-04-24T07:34:19;11.80;99.90
33328;DHT22;19692;52.998;9.116;2023-04-24T07:36:46;11.80;99.90
33328;DHT22;19692;52.998;9.116;2023-04-24T07:39:11;11.80;99.90
33328;DHT22;19692;52.998;9.116;2023-04-24T07:41:37;11.70;99.90
33328;DHT22;19692;52.998;9.116;2023-04-24T07:44:03;11.60;99.90
33328;DHT22;19692;52.998;9.116;2023-04-24T07:46:30;11.40;99.90
33328;DHT22;19692;52.998;9.116;2023-04-24T07:48:55;11.30;99.90
33328;DHT22;19692;52.998;9.116;2023-04-24T07:51:21;11.40;99.90
33328;DHT22;19692;52.998;9.116;2023-04-24T07:53:47;11.50;99.90
33328;DHT22;19692;52.998;9.116;2023-04-24T07:56:13;11.60;99.90
33328;DHT22;19692;52.998;9.116;2023-04-24T07:58:39;11.60;99.90
33328;DHT22;19692;52.998;9.116;2023-04-24T08:01:05;11.60;99.90
33328;DHT22;19692;52.998;9.116;2023-04-24T08:03:31;11.50;99.90
33328;DHT22;19692;52.998;9.116;2023-04-24T08:05:57;11.50;99.90
33328;DHT22;19692;52.998;9.116;2023-04-24T08:08:22;11.40;99.90
33328;DHT22;19692;52.998;9.116;2023-04-24T08:10:49;11.50;99.90
33328;DHT22;19692;52.998;9.116;2023-04-24T08:13:15;11.50;99.90
33328;DHT22;19692;52.998;9.116;2023-04-24T08:15:41;11.40;99.90
33328;DHT22;19692;52.998;9.116;2023-04-24T08:18:07;11.30;99.90
33328;DHT22;19692;52.998;9.116;2023-04-24T08:20:33;11.10;99.90
33328;DHT22;19692;52.998;9.116;2023-04-24T08:22:59;11.10;99.90
33328;DHT22;19692;52.998;9.116;2023-04-24T08:25:24;11.10;99.90
33328;DHT22;19692;52.998;9.116;2023-04-24T08:27:51;11.10;99.90
33328;DHT22;19692;52.998;9.116;2023-04-24T08:30:17;11.20;99.90
33328;DHT22;19692;52.998;9.116;2023-04-24T08:32:43;11.20;99.90
33328;DHT22;19692;52.998;9.116;2023-04-24T08:35:12;11.20;99.90
33328;DHT22;19692;52.998;9.116;2023-04-24T08:37:38;11.20;99.90
33328;DHT22;19692;52.998;9.116;2023-04-24T08:40:11;11.20;99.90
33328;DHT22;19692;52.998;9.116;2023-04-24T08:42:39;11.30;99.90
33328;DHT22;19692;52.998;9.116;2023-04-24T08:45:08;11.20;99.90
33328;DHT22;19692;52.998;9.116;2023-04-24T08:47:37;11.40;99.90
33328;DHT22;19692;52.998;9.116;2023-04-24T08:50:04;11.50;99.90
33328;DHT22;19692;52.998;9.116;2023-04-24T08:52:33;11.60;99.90
33328;DHT22;19692;52.998;9.116;2023-04-24T08:55:00;11.70;99.90
33328;DHT22;19692;52.998;9.116;2023-04-24T08:57:26;11.80;99.90
33328;DHT22;19692;52.998;9.116;2023-04-24T08:59:53;11.90;99.90
33328;DHT22;19692;52.998;9.116;2023-04-24T09:02:20;11.90;99.90
33328;DHT22;19692;52.998;9.116;2023-04-24T09:04:47;11.90;99.90
33328;DHT22;19692;52.998;9.116;2023-04-24T09:07:14;11.80;99.90
33328;DHT22;19692;52.998;9.116;2023-04-24T09:09:42;11.70;99.90
33328;DHT22;19692;52.998;9.116;2023-04-24T09:12:08;11.60;99.90
33328;DHT22;19692;52.998;9.116;2023-04-24T09:14:36;11.50;99.90
33328;DHT22;19692;52.998;9.116;2023-04-24T09:17:05;11.50;99.90
33328;DHT22;19692;52.998;9.116;2023-04-24T09:19:31;11.70;99.90
33328;DHT22;19692;52.998;9.116;2023-04-24T09:21:57;11.70;99.90
33328;DHT22;19692;52.998;9.116;2023-04-24T09:24:23;11.60;99.90
33328;DHT22;19692;52.998;9.116;2023-04-24T09:26:56;11.60;99.90
33328;DHT22;19692;52.998;9.116;2023-04-24T09:29:24;11.60;99.90
33328;DHT22;19692;52.998;9.116;2023-04-24T09:31:50;11.60;99.90
33328;DHT22;19692;52.998;9.116;2023-04-24T09:34:24;11.50;99.90
33328;DHT22;19692;52.998;9.116;2023-04-24T09:36:51;11.50;99.90
33328;DHT22;19692;52.998;9.116;2023-04-24T09:39:18;11.60;99.90
33328;DHT22;19692;52.998;9.116;2023-04-24T09:41:51;11.70;99.90
33328;DHT22;19692;52.998;9.116;2023-04-24T09:44:20;11.70;99.90
33328;DHT22;19692;52.998;9.116;2023-04-24T09:46:51;11.70;99.90
33328;DHT22;19692;52.998;9.116;2023-04-24T09:49:23;11.80;99.90
33328;DHT22;19692;52.998;9.116;2023-04-24T09:52:23;11.80;99.90
33328;DHT22;19692;52.998;9.116;2023-04-24T09:54:53;11.80;99.90
33328;DHT22;19692;52.998;9.116;2023-04-24T09:57:19;11.90;99.90
33328;DHT22;19692;52.998;9.116;2023-04-24T09:59:46;11.90;99.90
33328;DHT22;19692;52.998;9.116;2023-04-24T10:02:19;11.70;99.90
33328;DHT22;19692;52.998;9.116;2023-04-24T10:04:57;11.60;99.90
33328;DHT22;19692;52.998;9.116;2023-04-24T10:07:27;11.50;99.90
33328;DHT22;19692;52.998;9.116;2023-04-24T10:09:54;11.50;99.90
33328;DHT22;19692;52.998;9.116;2023-04-24T10:12:20;11.60;99.90
33328;DHT22;19692;52.998;9.116;2023-04-24T10:14:46;11.50;99.90
33328;DHT22;19692;52.998;9.116;2023-04-24T10:17:14;11.60;99.90
33328;DHT22;19692;52.998;9.116;2023-04-24T10:19:40;11.70;99.90
33328;DHT22;19692;52.998;9.116;2023-04-24T10:22:07;11.60;99.90
33328;DHT22;19692;52.998;9.116;2023-04-24T10:24:33;11.80;99.90
33328;DHT22;19692;52.998;9.116;2023-04-24T10:27:02;11.90;99.90
33328;DHT22;19692;52.998;9.116;2023-04-24T10:29:31;11.90;99.90
33328;DHT22;19692;52.998;9.116;2023-04-24T10:31:57;11.90;99.90
33328;DHT22;19692;52.998;9.116;2023-04-24T10:34:23;11.90;99.90
33328;DHT22;19692;52.998;9.116;2023-04-24T10:36:51;11.80;99.90
33328;DHT22;19692;52.998;9.116;2023-04-24T10:39:18;11.80;99.90
33328;DHT22;19692;52.998;9.116;2023-04-24T10:41:45;11.80;99.90
33328;DHT22;19692;52.998;9.116;2023-04-24T10:44:15;11.80;99.90
33328;DHT22;19692;52.998;9.116;2023-04-24T10:46:53;11.90;99.90
33328;DHT22;19692;52.998;9.116;2023-04-24T10:49:30;11.80;99.90
33328;DHT22;19692;52.998;9.116;2023-04-24T10:52:01;11.80;99.90
33328;DHT22;19692;52.998;9.116;2023-04-24T10:54:42;11.80;99.90
33328;DHT22;19692;52.998;9.116;2023-04-24T10:59:45;11.80;99.90
33328;DHT22;19692;52.998;9.116;2023-04-24T11:02:14;11.70;99.90
33328;DHT22;19692;52.998;9.116;2023-04-24T11:04:44;11.70;99.90
33328;DHT22;19692;52.998;9.116;2023-04-24T11:07:10;11.60;99.90
33328;DHT22;19692;52.998;9.116;2023-04-24T11:09:37;11.70;99.90
33328;DHT22;19692;52.998;9.116;2023-04-24T11:12:10;11.60;99.90
33328;DHT22;19692;52.998;9.116;2023-04-24T11:17:34;11.40;99.90
33328;DHT22;19692;52.998;9.116;2023-04-24T11:20:07;11.30;99.90
33328;DHT22;19692;52.998;9.116;2023-04-24T11:22:36;11.30;99.90
33328;DHT22;19692;52.998;9.116;2023-04-24T11:25:06;11.30;99.90
33328;DHT22;19692;52.998;9.116;2023-04-24T11:27:43;11.10;99.90
33328;DHT22;19692;52.998;9.116;2023-04-24T11:30:10;11.20;99.90
33328;DHT22;19692;52.998;9.116;2023-04-24T11:32:41;11.00;99.90
33328;DHT22;19692;52.998;9.116;2023-04-24T11:35:39;11.00;99.90
33328;DHT22;19692;52.998;9.116;2023-04-24T11:38:06;11.10;99.90
33328;DHT22;19692;52.998;9.116;2023-04-24T11:40:32;11.20;99.90
33328;DHT22;19692;52.998;9.116;2023-04-24T11:42:59;11.20;99.90
33328;DHT22;19692;52.998;9.116;2023-04-24T11:45:27;11.30;99.90
33328;DHT22;19692;52.998;9.116;2023-04-24T11:47:55;11.40;99.90
33328;DHT22;19692;52.998;9.116;2023-04-24T11:50:22;11.50;99.90
33328;DHT22;19692;52.998;9.116;2023-04-24T11:52:51;11.50;99.90
33328;DHT22;19692;52.998;9.116;2023-04-24T11:57:45;11.20;99.90
33328;DHT22;19692;52.998;9.116;2023-04-24T12:00:18;11.20;99.90
33328;DHT22;19692;52.998;9.116;2023-04-24T12:02:46;11.20;99.90
33328;DHT22;19692;52.998;9.116;2023-04-24T12:05:22;11.40;99.90
33328;DHT22;19692;52.998;9.116;2023-04-24T12:07:49;11.40;99.90
33328;DHT22;19692;52.998;9.116;2023-04-24T12:10:20;11.50;99.90
33328;DHT22;19692;52.998;9.116;2023-04-24T12:12:46;11.70;99.90
33328;DHT22;19692;52.998;9.116;2023-04-24T12:15:12;11.80;99.90
33328;DHT22;19692;52.998;9.116;2023-04-24T12:17:41;11.80;99.90
33328;DHT22;19692;52.998;9.116;2023-04-24T12:20:08;11.70;99.90
33328;DHT22;19692;52.998;9.116;2023-04-24T12:22:52;11.70;99.90
33328;DHT22;19692;52.998;9.116;2023-04-24T12:25:21;11.70;99.90
33328;DHT22;19692;52.998;9.116;2023-04-24T12:28:08;11.60;99.90
33328;DHT22;19692;52.998;9.116;2023-04-24T15:42:21;8.30;99.90
33328;DHT22;19692;52.998;9.116;2023-04-24T15:44:48;8.40;99.90
33328;DHT22;19692;52.998;9.116;2023-04-24T15:47:13;8.30;99.90
33328;DHT22;19692;52.998;9.116;2023-04-24T15:49:39;8.30;99.90
33328;DHT22;19692;52.998;9.116;2023-04-24T15:52:05;8.30;99.90
33328;DHT22;19692;52.998;9.116;2023-04-24T15:54:31;8.30;99.90
33328;DHT22;19692;52.998;9.116;2023-04-24T15:56:57;8.40;99.90
33328;DHT22;19692;52.998;9.116;2023-04-24T15:59:23;8.50;99.90
33328;DHT22;19692;52.998;9.116;2023-04-24T16:01:49;8.50;99.90
33328;DHT22;19692;52.998;9.116;2023-04-24T16:04:15;8.60;99.90
33328;DHT22;19692;52.998;9.116;2023-04-24T16:06:41;8.60;99.90
33328;DHT22;19692;52.998;9.116;2023-04-24T16:09:08;8.50;99.90
33328;DHT22;19692;52.998;9.116;2023-04-24T16:11:37;8.70;99.90
33328;DHT22;19692;52.998;9.116;2023-04-24T16:14:06;8.70;99.90
33328;DHT22;19692;52.998;9.116;2023-04-24T16:16:33;8.70;99.90
33328;DHT22;19692;52.998;9.116;2023-04-24T16:18:58;8.70;99.90
33328;DHT22;19692;52.998;9.116;2023-04-24T16:21:24;8.70;99.90
33328;DHT22;19692;52.998;9.116;2023-04-24T16:23:50;8.80;99.90
33328;DHT22;19692;52.998;9.116;2023-04-24T16:26:19;8.70;99.90
33328;DHT22;19692;52.998;9.116;2023-04-24T16:28:45;8.80;99.90
33328;DHT22;19692;52.998;9.116;2023-04-24T16:31:11;8.60;99.90
33328;DHT22;19692;52.998;9.116;2023-04-24T16:33:37;8.70;99.90
33328;DHT22;19692;52.998;9.116;2023-04-24T16:36:04;8.60;99.90
33328;DHT22;19692;52.998;9.116;2023-04-24T16:38:30;8.70;99.90
33328;DHT22;19692;52.998;9.116;2023-04-24T16:40:55;8.60;99.90
33328;DHT22;19692;52.998;9.116;2023-04-24T16:43:21;8.60;99.90
33328;DHT22;19692;52.998;9.116;2023-04-24T16:45:47;8.70;99.90
33328;DHT22;19692;52.998;9.116;2023-04-24T16:48:12;8.60;99.90
33328;DHT22;19692;52.998;9.116;2023-04-24T16:50:38;8.60;99.90
33328;DHT22;19692;52.998;9.116;2023-04-24T16:53:04;8.50;99.90
33328;DHT22;19692;52.998;9.116;2023-04-24T16:55:30;8.60;99.90
33328;DHT22;19692;52.998;9.116;2023-04-24T16:57:55;8.50;99.90
33328;DHT22;19692;52.998;9.116;2023-04-24T17:00:21;8.50;99.90
33328;DHT22;19692;52.998;9.116;2023-04-24T17:02:47;8.40;99.90
33328;DHT22;19692;52.998;9.116;2023-04-24T17:05:14;8.40;99.90
33328;DHT22;19692;52.998;9.116;2023-04-24T17:07:40;8.40;99.90
33328;DHT22;19692;52.998;9.116;2023-04-24T17:10:06;8.50;99.90
33328;DHT22;19692;52.998;9.116;2023-04-24T17:12:33;8.50;99.90
33328;DHT22;19692;52.998;9.116;2023-04-24T17:14:59;8.60;99.90
33328;DHT22;19692;52.998;9.116;2023-04-24T17:17:25;8.50;99.90
33328;DHT22;19692;52.998;9.116;2023-04-24T17:19:54;8.40;99.90
33328;DHT22;19692;52.998;9.116;2023-04-24T17:22:20;8.30;99.90
33328;DHT22;19692;52.998;9.116;2023-04-24T17:24:45;8.30;99.90
33328;DHT22;19692;52.998;9.116;2023-04-24T17:27:11;8.30;99.90
33328;DHT22;19692;52.998;9.116;2023-04-24T17:29:38;8.20;99.90
33328;DHT22;19692;52.998;9.116;2023-04-24T17:32:04;8.20;99.90
33328;DHT22;19692;52.998;9.116;2023-04-24T17:34:30;8.20;99.90
33328;DHT22;19692;52.998;9.116;2023-04-24T17:36:56;8.30;99.90
33328;DHT22;19692;52.998;9.116;2023-04-24T17:39:21;8.30;99.90
33328;DHT22;19692;52.998;9.116;2023-04-24T17:41:47;8.30;99.90
33328;DHT22;19692;52.998;9.116;2023-04-24T17:44:13;8.30;99.90
33328;DHT22;19692;52.998;9.116;2023-04-24T17:46:39;8.30;99.90
33328;DHT22;19692;52.998;9.116;2023-04-24T17:49:04;8.30;99.90
33328;DHT22;19692;52.998;9.116;2023-04-24T17:51:30;8.40;99.90
33328;DHT22;19692;52.998;9.116;2023-04-24T17:53:57;8.40;99.90
33328;DHT22;19692;52.998;9.116;2023-04-24T17:56:22;8.30;99.90
33328;DHT22;19692;52.998;9.116;2023-04-24T17:58:50;8.40;99.90
33328;DHT22;19692;52.998;9.116;2023-04-24T18:01:16;8.30;99.90
33328;DHT22;19692;52.998;9.116;2023-04-24T18:03:42;8.30;99.90
33328;DHT22;19692;52.998;9.116;2023-04-24T18:06:09;8.40;99.90
33328;DHT22;19692;52.998;9.116;2023-04-24T18:08:35;8.30;99.90
33328;DHT22;19692;52.998;9.116;2023-04-24T18:11:01;8.30;99.90
33328;DHT22;19692;52.998;9.116;2023-04-24T18:13:27;8.40;99.90
33328;DHT22;19692;52.998;9.116;2023-04-24T18:15:53;8.30;99.90
33328;DHT22;19692;52.998;9.116;2023-04-24T18:18:19;8.30;99.90
33328;DHT22;19692;52.998;9.116;2023-04-24T18:20:47;8.30;99.90
33328;DHT22;19692;52.998;9.116;2023-04-24T18:23:13;8.20;99.90
33328;DHT22;19692;52.998;9.116;2023-04-24T18:25:39;8.30;99.90
33328;DHT22;19692;52.998;9.116;2023-04-24T18:28:05;8.30;99.90
33328;DHT22;19692;52.998;9.116;2023-04-24T18:30:30;8.20;99.90
33328;DHT22;19692;52.998;9.116;2023-04-24T18:32:56;8.10;99.90
33328;DHT22;19692;52.998;9.116;2023-04-24T18:35:23;8.20;99.90
33328;DHT22;19692;52.998;9.116;2023-04-24T18:37:49;8.20;99.90
33328;DHT22;19692;52.998;9.116;2023-04-24T18:40:15;8.30;99.90
33328;DHT22;19692;52.998;9.116;2023-04-24T18:42:41;8.30;99.90
33328;DHT22;19692;52.998;9.116;2023-04-24T18:45:08;8.30;99.90
33328;DHT22;19692;52.998;9.116;2023-04-24T18:47:34;8.30;99.90
33328;DHT22;19692;52.998;9.116;2023-04-24T18:50:01;8.30;99.90
33328;DHT22;19692;52.998;9.116;2023-04-24T18:52:27;8.20;99.90